sensor_id;sensor_type;location;lat;lon;timestamp;P1;durP1;ratioP1;P2;durP2;ratioP2
13325;SDS011;6732;51.044;3.746;2023-04-24T00:02:00;15.97;;;11.73;;
13325;SDS011;6732;51.044;3.746;2023-04-24T00:04:27;18.73;;;11.73;;
13325;SDS011;6732;51.044;3.746;2023-04-24T00:06:53;16.43;;;11.50;;
13325;SDS011;6732;51.044;3.746;2023-04-24T00:09:22;17.13;;;12.30;;
13325;SDS011;6732;51.044;3.746;2023-04-24T00:11:49;13.83;;;10.70;;
13325;SDS011;6732;51.044;3.746;2023-04-24T00:14:15;14.07;;;10.83;;
13325;SDS011;6732;51.044;3.746;2023-04-24T00:16:42;13.10;;;10.83;;
13325;SDS011;6732;51.044;3.746;2023-04-24T00:19:08;14.67;;;10.70;;
13325;SDS011;6732;51.044;3.746;2023-04-24T00:21:34;15.57;;;11.17;;
13325;SDS011;6732;51.044;3.746;2023-04-24T00:24:01;14.30;;;11.50;;
13325;SDS011;6732;51.044;3.746;2023-04-24T00:26:27;12.57;;;10.83;;
13325;SDS011;6732;51.044;3.746;2023-04-24T00:28:53;12.53;;;10.63;;
13325;SDS011;6732;51.044;3.746;2023-04-24T00:31:20;12.70;;;10.13;;
13325;SDS011;6732;51.044;3.746;2023-04-24T00:33:46;12.87;;;10.53;;
13325;SDS011;6732;51.044;3.746;2023-04-24T00:36:13;12.60;;;10.40;;
13325;SDS011;6732;51.044;3.746;2023-04-24T00:38:39;12.77;;;9.90;;
13325;SDS011;6732;51.044;3.746;2023-04-24T00:41:05;12.77;;;10.00;;
13325;SDS011;6732;51.044;3.746;2023-04-24T00:43:32;10.50;;;8.77;;
13325;SDS011;6732;51.044;3.746;2023-04-24T00:45:58;10.20;;;9.00;;
13325;SDS011;6732;51.044;3.746;2023-04-24T00:48:26;10.27;;;8.27;;
13325;SDS011;6732;51.044;3.746;2023-04-24T00:50:53;9.40;;;8.40;;
13325;SDS011;6732;51.044;3.746;2023-04-24T00:53:20;8.97;;;8.10;;
13325;SDS011;6732;51.044;3.746;2023-04-24T00:55:46;9.77;;;7.93;;
13325;SDS011;6732;51.044;3.746;2023-04-24T00:58:12;9.03;;;8.13;;
13325;SDS011;6732;51.044;3.746;2023-04-24T01:00:39;9.60;;;8.70;;
13325;SDS011;6732;51.044;3.746;2023-04-24T01:03:06;9.47;;;8.57;;
13325;SDS011;6732;51.044;3.746;2023-04-24T01:05:32;10.13;;;8.47;;
13325;SDS011;6732;51.044;3.746;2023-04-24T01:07:59;10.10;;;8.40;;
13325;SDS011;6732;51.044;3.746;2023-04-24T01:10:26;9.13;;;8.23;;
13325;SDS011;6732;51.044;3.746;2023-04-24T01:12:53;9.37;;;8.57;;
13325;SDS011;6732;51.044;3.746;2023-04-24T01:15:19;10.07;;;9.07;;
13325;SDS011;6732;51.044;3.746;2023-04-24T01:17:46;9.37;;;8.37;;
13325;SDS011;6732;51.044;3.746;2023-04-24T01:20:12;9.50;;;8.60;;
13325;SDS011;6732;51.044;3.746;2023-04-24T01:22:39;8.90;;;7.97;;
13325;SDS011;6732;51.044;3.746;2023-04-24T01:25:06;10.30;;;8.03;;
13325;SDS011;6732;51.044;3.746;2023-04-24T01:27:33;9.30;;;8.40;;
13325;SDS011;6732;51.044;3.746;2023-04-24T01:29:59;9.07;;;8.17;;
13325;SDS011;6732;51.044;3.746;2023-04-24T01:32:25;8.93;;;8.10;;
13325;SDS011;6732;51.044;3.746;2023-04-24T01:34:52;8.07;;;7.27;;
13325;SDS011;6732;51.044;3.746;2023-04-24T01:37:18;8.40;;;7.60;;
13325;SDS011;6732;51.044;3.746;2023-04-24T01:39:45;9.17;;;8.27;;
13325;SDS011;6732;51.044;3.746;2023-04-24T01:42:11;9.73;;;8.83;;
13325;SDS011;6732;51.044;3.746;2023-04-24T01:44:38;10.30;;;9.30;;
13325;SDS011;6732;51.044;3.746;2023-04-24T01:47:05;10.37;;;9.27;;
13325;SDS011;6732;51.044;3.746;2023-04-24T01:49:31;10.73;;;9.73;;
13325;SDS011;6732;51.044;3.746;2023-04-24T01:51:58;10.20;;;9.17;;
13325;SDS011;6732;51.044;3.746;2023-04-24T01:54:24;10.10;;;9.17;;
13325;SDS011;6732;51.044;3.746;2023-04-24T01:56:51;10.40;;;9.43;;
13325;SDS011;6732;51.044;3.746;2023-04-24T01:59:17;10.67;;;9.57;;
13325;SDS011;6732;51.044;3.746;2023-04-24T02:01:43;10.57;;;9.57;;
13325;SDS011;6732;51.044;3.746;2023-04-24T02:04:10;11.10;;;10.07;;
13325;SDS011;6732;51.044;3.746;2023-04-24T02:06:36;10.67;;;9.67;;
13325;SDS011;6732;51.044;3.746;2023-04-24T02:09:02;10.90;;;9.83;;
13325;SDS011;6732;51.044;3.746;2023-04-24T02:11:29;10.57;;;9.57;;
13325;SDS011;6732;51.044;3.746;2023-04-24T02:13:55;10.73;;;9.63;;
13325;SDS011;6732;51.044;3.746;2023-04-24T02:16:21;10.07;;;9.17;;
13325;SDS011;6732;51.044;3.746;2023-04-24T02:18:48;11.00;;;9.90;;
13325;SDS011;6732;51.044;3.746;2023-04-24T02:21:14;9.90;;;9.00;;
13325;SDS011;6732;51.044;3.746;2023-04-24T02:23:40;10.77;;;9.77;;
13325;SDS011;6732;51.044;3.746;2023-04-24T02:26:06;10.77;;;9.77;;
13325;SDS011;6732;51.044;3.746;2023-04-24T02:28:33;11.03;;;9.93;;
13325;SDS011;6732;51.044;3.746;2023-04-24T02:30:59;11.33;;;10.23;;
13325;SDS011;6732;51.044;3.746;2023-04-24T02:33:26;11.33;;;10.13;;
13325;SDS011;6732;51.044;3.746;2023-04-24T02:35:52;11.03;;;9.90;;
13325;SDS011;6732;51.044;3.746;2023-04-24T02:38:18;11.40;;;10.30;;
13325;SDS011;6732;51.044;3.746;2023-04-24T02:40:45;11.23;;;10.13;;
13325;SDS011;6732;51.044;3.746;2023-04-24T02:43:11;10.67;;;9.37;;
13325;SDS011;6732;51.044;3.746;2023-04-24T02:45:37;10.27;;;9.27;;
13325;SDS011;6732;51.044;3.746;2023-04-24T02:48:04;17.70;;;9.93;;
13325;SDS011;6732;51.044;3.746;2023-04-24T02:50:30;9.77;;;8.87;;
13325;SDS011;6732;51.044;3.746;2023-04-24T02:52:57;10.23;;;9.23;;
13325;SDS011;6732;51.044;3.746;2023-04-24T02:55:24;7.33;;;6.63;;
13325;SDS011;6732;51.044;3.746;2023-04-24T02:57:50;6.23;;;5.57;;
13325;SDS011;6732;51.044;3.746;2023-04-24T03:00:16;7.27;;;5.20;;
13325;SDS011;6732;51.044;3.746;2023-04-24T03:02:43;5.93;;;4.70;;
13325;SDS011;6732;51.044;3.746;2023-04-24T03:05:12;4.47;;;3.90;;
13325;SDS011;6732;51.044;3.746;2023-04-24T03:07:38;6.00;;;3.87;;
13325;SDS011;6732;51.044;3.746;2023-04-24T03:10:05;7.43;;;3.37;;
13325;SDS011;6732;51.044;3.746;2023-04-24T03:12:31;6.30;;;3.60;;
13325;SDS011;6732;51.044;3.746;2023-04-24T03:14:58;6.47;;;3.40;;
13325;SDS011;6732;51.044;3.746;2023-04-24T03:17:24;6.00;;;3.83;;
13325;SDS011;6732;51.044;3.746;2023-04-24T03:19:51;6.47;;;3.90;;
13325;SDS011;6732;51.044;3.746;2023-04-24T03:22:17;4.97;;;3.43;;
13325;SDS011;6732;51.044;3.746;2023-04-24T03:24:43;8.20;;;3.70;;
13325;SDS011;6732;51.044;3.746;2023-04-24T03:27:10;7.53;;;4.40;;
13325;SDS011;6732;51.044;3.746;2023-04-24T03:29:36;6.20;;;4.40;;
13325;SDS011;6732;51.044;3.746;2023-04-24T03:32:02;5.50;;;4.70;;
13325;SDS011;6732;51.044;3.746;2023-04-24T03:34:29;8.23;;;5.53;;
13325;SDS011;6732;51.044;3.746;2023-04-24T03:36:55;8.57;;;5.63;;
13325;SDS011;6732;51.044;3.746;2023-04-24T03:39:22;8.07;;;5.67;;
13325;SDS011;6732;51.044;3.746;2023-04-24T03:41:48;8.93;;;6.63;;
13325;SDS011;6732;51.044;3.746;2023-04-24T03:44:14;10.03;;;7.10;;
13325;SDS011;6732;51.044;3.746;2023-04-24T03:46:40;8.53;;;6.73;;
13325;SDS011;6732;51.044;3.746;2023-04-24T03:49:06;9.93;;;7.10;;
13325;SDS011;6732;51.044;3.746;2023-04-24T03:51:33;10.43;;;7.87;;
13325;SDS011;6732;51.044;3.746;2023-04-24T03:53:59;9.53;;;7.70;;
13325;SDS011;6732;51.044;3.746;2023-04-24T03:56:25;11.23;;;8.73;;
13325;SDS011;6732;51.044;3.746;2023-04-24T03:58:51;11.43;;;8.73;;
13325;SDS011;6732;51.044;3.746;2023-04-24T04:01:18;11.13;;;9.03;;
13325;SDS011;6732;51.044;3.746;2023-04-24T04:03:46;15.20;;;9.43;;
13325;SDS011;6732;51.044;3.746;2023-04-24T04:06:12;12.73;;;10.07;;
13325;SDS011;6732;51.044;3.746;2023-04-24T04:08:39;13.83;;;9.93;;
13325;SDS011;6732;51.044;3.746;2023-04-24T04:11:05;14.33;;;9.80;;
13325;SDS011;6732;51.044;3.746;2023-04-24T04:13:31;12.83;;;10.07;;
13325;SDS011;6732;51.044;3.746;2023-04-24T04:15:58;14.10;;;9.57;;
13325;SDS011;6732;51.044;3.746;2023-04-24T04:18:24;12.53;;;9.47;;
13325;SDS011;6732;51.044;3.746;2023-04-24T04:20:50;14.80;;;9.63;;
13325;SDS011;6732;51.044;3.746;2023-04-24T04:23:16;15.10;;;9.13;;
13325;SDS011;6732;51.044;3.746;2023-04-24T04:25:43;12.93;;;9.37;;
13325;SDS011;6732;51.044;3.746;2023-04-24T04:28:09;14.80;;;9.33;;
13325;SDS011;6732;51.044;3.746;2023-04-24T04:30:35;15.63;;;9.43;;
13325;SDS011;6732;51.044;3.746;2023-04-24T04:33:03;11.60;;;9.30;;
13325;SDS011;6732;51.044;3.746;2023-04-24T04:35:29;11.63;;;9.07;;
13325;SDS011;6732;51.044;3.746;2023-04-24T04:37:56;12.13;;;9.03;;
13325;SDS011;6732;51.044;3.746;2023-04-24T04:40:23;13.40;;;9.37;;
13325;SDS011;6732;51.044;3.746;2023-04-24T04:42:50;13.13;;;9.30;;
13325;SDS011;6732;51.044;3.746;2023-04-24T04:45:18;12.40;;;9.83;;
13325;SDS011;6732;51.044;3.746;2023-04-24T04:47:46;11.93;;;8.77;;
13325;SDS011;6732;51.044;3.746;2023-04-24T04:50:12;9.93;;;8.93;;
13325;SDS011;6732;51.044;3.746;2023-04-24T04:52:38;12.77;;;9.57;;
13325;SDS011;6732;51.044;3.746;2023-04-24T04:55:05;10.30;;;8.73;;
13325;SDS011;6732;51.044;3.746;2023-04-24T04:57:31;14.10;;;8.47;;
13325;SDS011;6732;51.044;3.746;2023-04-24T04:59:58;14.27;;;9.17;;
13325;SDS011;6732;51.044;3.746;2023-04-24T05:02:24;11.17;;;8.43;;
13325;SDS011;6732;51.044;3.746;2023-04-24T05:04:50;12.93;;;8.93;;
13325;SDS011;6732;51.044;3.746;2023-04-24T05:07:16;13.27;;;9.43;;
13325;SDS011;6732;51.044;3.746;2023-04-24T05:09:43;13.40;;;8.97;;
13325;SDS011;6732;51.044;3.746;2023-04-24T05:12:10;12.63;;;8.77;;
13325;SDS011;6732;51.044;3.746;2023-04-24T05:14:36;15.50;;;9.43;;
13325;SDS011;6732;51.044;3.746;2023-04-24T05:17:02;12.27;;;9.93;;
13325;SDS011;6732;51.044;3.746;2023-04-24T05:19:29;13.50;;;9.40;;
13325;SDS011;6732;51.044;3.746;2023-04-24T05:21:58;14.70;;;10.43;;
13325;SDS011;6732;51.044;3.746;2023-04-24T05:24:24;13.67;;;10.10;;
13325;SDS011;6732;51.044;3.746;2023-04-24T05:26:50;15.17;;;10.50;;
13325;SDS011;6732;51.044;3.746;2023-04-24T05:29:17;14.63;;;10.43;;
13325;SDS011;6732;51.044;3.746;2023-04-24T05:31:44;12.30;;;9.80;;
13325;SDS011;6732;51.044;3.746;2023-04-24T05:34:10;15.30;;;10.80;;
13325;SDS011;6732;51.044;3.746;2023-04-24T05:36:36;14.13;;;10.73;;
13325;SDS011;6732;51.044;3.746;2023-04-24T05:39:02;12.77;;;11.43;;
13325;SDS011;6732;51.044;3.746;2023-04-24T05:41:30;15.47;;;12.00;;
13325;SDS011;6732;51.044;3.746;2023-04-24T05:43:56;13.27;;;11.10;;
13325;SDS011;6732;51.044;3.746;2023-04-24T05:46:22;12.93;;;10.43;;
13325;SDS011;6732;51.044;3.746;2023-04-24T05:48:49;20.43;;;11.30;;
13325;SDS011;6732;51.044;3.746;2023-04-24T05:51:15;16.07;;;11.47;;
13325;SDS011;6732;51.044;3.746;2023-04-24T05:53:41;18.57;;;12.20;;
13325;SDS011;6732;51.044;3.746;2023-04-24T05:56:08;15.53;;;11.80;;
13325;SDS011;6732;51.044;3.746;2023-04-24T05:58:34;17.97;;;12.57;;
13325;SDS011;6732;51.044;3.746;2023-04-24T06:01:01;18.83;;;12.87;;
13325;SDS011;6732;51.044;3.746;2023-04-24T06:03:27;22.37;;;13.93;;
13325;SDS011;6732;51.044;3.746;2023-04-24T06:05:54;21.47;;;13.53;;
13325;SDS011;6732;51.044;3.746;2023-04-24T06:08:20;21.27;;;14.50;;
13325;SDS011;6732;51.044;3.746;2023-04-24T06:10:46;21.53;;;14.43;;
13325;SDS011;6732;51.044;3.746;2023-04-24T06:13:13;22.77;;;13.50;;
13325;SDS011;6732;51.044;3.746;2023-04-24T06:15:39;19.83;;;13.47;;
13325;SDS011;6732;51.044;3.746;2023-04-24T06:18:05;16.97;;;13.27;;
13325;SDS011;6732;51.044;3.746;2023-04-24T06:20:32;21.30;;;14.30;;
13325;SDS011;6732;51.044;3.746;2023-04-24T06:22:58;23.27;;;14.03;;
13325;SDS011;6732;51.044;3.746;2023-04-24T06:25:25;20.90;;;13.77;;
13325;SDS011;6732;51.044;3.746;2023-04-24T06:27:52;21.47;;;13.37;;
13325;SDS011;6732;51.044;3.746;2023-04-24T06:30:18;21.43;;;13.10;;
13325;SDS011;6732;51.044;3.746;2023-04-24T06:32:44;21.87;;;13.53;;
13325;SDS011;6732;51.044;3.746;2023-04-24T06:35:11;23.10;;;13.10;;
13325;SDS011;6732;51.044;3.746;2023-04-24T06:37:40;21.87;;;13.33;;
13325;SDS011;6732;51.044;3.746;2023-04-24T06:40:07;20.53;;;12.20;;
13325;SDS011;6732;51.044;3.746;2023-04-24T06:42:34;18.27;;;12.57;;
13325;SDS011;6732;51.044;3.746;2023-04-24T06:45:00;17.77;;;11.67;;
13325;SDS011;6732;51.044;3.746;2023-04-24T06:47:27;17.87;;;11.60;;
13325;SDS011;6732;51.044;3.746;2023-04-24T06:49:53;17.00;;;10.87;;
13325;SDS011;6732;51.044;3.746;2023-04-24T06:52:20;16.50;;;10.83;;
13325;SDS011;6732;51.044;3.746;2023-04-24T06:54:46;19.10;;;11.20;;
13325;SDS011;6732;51.044;3.746;2023-04-24T06:57:13;21.13;;;11.30;;
13325;SDS011;6732;51.044;3.746;2023-04-24T06:59:41;17.63;;;10.97;;
13325;SDS011;6732;51.044;3.746;2023-04-24T07:02:08;18.30;;;11.43;;
13325;SDS011;6732;51.044;3.746;2023-04-24T07:04:34;18.13;;;10.37;;
13325;SDS011;6732;51.044;3.746;2023-04-24T07:07:00;18.53;;;10.43;;
13325;SDS011;6732;51.044;3.746;2023-04-24T07:09:27;18.67;;;11.03;;
13325;SDS011;6732;51.044;3.746;2023-04-24T07:11:54;17.77;;;10.20;;
13325;SDS011;6732;51.044;3.746;2023-04-24T07:14:21;21.17;;;10.30;;
13325;SDS011;6732;51.044;3.746;2023-04-24T07:16:48;15.27;;;8.33;;
13325;SDS011;6732;51.044;3.746;2023-04-24T07:19:14;18.37;;;8.17;;
13325;SDS011;6732;51.044;3.746;2023-04-24T07:21:40;16.07;;;7.70;;
13325;SDS011;6732;51.044;3.746;2023-04-24T07:24:07;15.10;;;8.53;;
13325;SDS011;6732;51.044;3.746;2023-04-24T07:26:38;14.53;;;7.23;;
13325;SDS011;6732;51.044;3.746;2023-04-24T07:29:05;14.57;;;7.13;;
13325;SDS011;6732;51.044;3.746;2023-04-24T07:31:31;12.57;;;7.13;;
13325;SDS011;6732;51.044;3.746;2023-04-24T07:33:58;15.03;;;7.13;;
13325;SDS011;6732;51.044;3.746;2023-04-24T07:36:24;14.30;;;6.73;;
13325;SDS011;6732;51.044;3.746;2023-04-24T07:38:51;13.87;;;7.90;;
13325;SDS011;6732;51.044;3.746;2023-04-24T07:41:18;16.33;;;7.37;;
13325;SDS011;6732;51.044;3.746;2023-04-24T07:43:44;12.67;;;7.60;;
13325;SDS011;6732;51.044;3.746;2023-04-24T07:46:11;14.93;;;7.53;;
13325;SDS011;6732;51.044;3.746;2023-04-24T07:48:37;14.97;;;7.13;;
13325;SDS011;6732;51.044;3.746;2023-04-24T07:51:03;14.50;;;7.37;;
13325;SDS011;6732;51.044;3.746;2023-04-24T07:53:30;11.80;;;6.50;;
13325;SDS011;6732;51.044;3.746;2023-04-24T07:55:56;13.33;;;7.00;;
13325;SDS011;6732;51.044;3.746;2023-04-24T07:58:22;15.27;;;7.10;;
13325;SDS011;6732;51.044;3.746;2023-04-24T08:00:49;17.13;;;6.93;;
13325;SDS011;6732;51.044;3.746;2023-04-24T08:03:15;14.30;;;7.50;;
13325;SDS011;6732;51.044;3.746;2023-04-24T08:05:44;14.40;;;7.03;;
13325;SDS011;6732;51.044;3.746;2023-04-24T08:08:10;14.50;;;7.43;;
13325;SDS011;6732;51.044;3.746;2023-04-24T08:10:37;12.17;;;6.83;;
13325;SDS011;6732;51.044;3.746;2023-04-24T08:13:03;12.50;;;6.70;;
13325;SDS011;6732;51.044;3.746;2023-04-24T08:15:30;14.07;;;7.00;;
13325;SDS011;6732;51.044;3.746;2023-04-24T08:17:56;13.77;;;7.20;;
13325;SDS011;6732;51.044;3.746;2023-04-24T08:20:23;12.83;;;7.00;;
13325;SDS011;6732;51.044;3.746;2023-04-24T08:22:49;16.17;;;6.40;;
13325;SDS011;6732;51.044;3.746;2023-04-24T08:25:15;11.93;;;6.20;;
13325;SDS011;6732;51.044;3.746;2023-04-24T08:27:43;12.47;;;6.27;;
13325;SDS011;6732;51.044;3.746;2023-04-24T08:30:09;12.87;;;6.40;;
